sensor_id;sensor_type;location;lat;lon;timestamp;temperature;humidity
25108;DHT22;13090;53.422;7.670;2023-05-27T00:00:17;10.70;61.90
25108;DHT22;13090;53.422;7.670;2023-05-27T00:05:39;10.60;62.60
25108;DHT22;13090;53.422;7.670;2023-05-27T00:11:00;10.50;64.00
25108;DHT22;13090;53.422;7.670;2023-05-27T00:16:21;10.50;63.10
25108;DHT22;13090;53.422;7.670;2023-05-27T00:21:44;10.50;63.40
25108;DHT22;13090;53.422;7.670;2023-05-27T00:27:05;10.40;63.80
25108;DHT22;13090;53.422;7.670;2023-05-27T00:32:26;10.40;63.60
25108;DHT22;13090;53.422;7.670;2023-05-27T00:37:48;10.40;63.70
25108;DHT22;13090;53.422;7.670;2023-05-27T00:43:09;10.40;64.60
25108;DHT22;13090;53.422;7.670;2023-05-27T00:48:30;10.50;64.70
25108;DHT22;13090;53.422;7.670;2023-05-27T00:53:53;10.50;64.80
25108;DHT22;13090;53.422;7.670;2023-05-27T00:59:13;10.50;65.30
25108;DHT22;13090;53.422;7.670;2023-05-27T01:04:35;10.60;65.30
25108;DHT22;13090;53.422;7.670;2023-05-27T01:10:03;10.60;65.60
25108;DHT22;13090;53.422;7.670;2023-05-27T01:15:29;10.60;66.80
25108;DHT22;13090;53.422;7.670;2023-05-27T01:20:53;10.60;66.20
25108;DHT22;13090;53.422;7.670;2023-05-27T01:26:18;10.60;66.40
25108;DHT22;13090;53.422;7.670;2023-05-27T01:31:45;10.60;66.40
25108;DHT22;13090;53.422;7.670;2023-05-27T01:37:10;10.60;66.60
25108;DHT22;13090;53.422;7.670;2023-05-27T01:42:35;10.60;66.60
25108;DHT22;13090;53.422;7.670;2023-05-27T01:47:56;10.50;67.00
25108;DHT22;13090;53.422;7.670;2023-05-27T01:53:17;10.50;66.70
25108;DHT22;13090;53.422;7.670;2023-05-27T01:58:39;10.40;66.80
25108;DHT22;13090;53.422;7.670;2023-05-27T02:04:00;10.40;67.40
25108;DHT22;13090;53.422;7.670;2023-05-27T02:09:21;10.40;67.00
25108;DHT22;13090;53.422;7.670;2023-05-27T02:14:43;10.30;67.10
25108;DHT22;13090;53.422;7.670;2023-05-27T02:20:05;10.30;67.40
25108;DHT22;13090;53.422;7.670;2023-05-27T02:25:26;10.20;67.20
25108;DHT22;13090;53.422;7.670;2023-05-27T02:30:48;10.20;67.00
25108;DHT22;13090;53.422;7.670;2023-05-27T02:36:09;10.10;67.30
25108;DHT22;13090;53.422;7.670;2023-05-27T02:41:30;10.00;67.20
25108;DHT22;13090;53.422;7.670;2023-05-27T02:46:53;9.90;67.20
25108;DHT22;13090;53.422;7.670;2023-05-27T02:52:14;9.90;67.50
25108;DHT22;13090;53.422;7.670;2023-05-27T02:57:35;9.80;67.40
25108;DHT22;13090;53.422;7.670;2023-05-27T03:02:57;9.80;67.80
25108;DHT22;13090;53.422;7.670;2023-05-27T03:08:18;9.80;68.10
25108;DHT22;13090;53.422;7.670;2023-05-27T03:13:39;9.80;68.20
25108;DHT22;13090;53.422;7.670;2023-05-27T03:19:01;9.70;68.20
25108;DHT22;13090;53.422;7.670;2023-05-27T03:24:22;9.70;68.40
25108;DHT22;13090;53.422;7.670;2023-05-27T03:29:43;9.70;68.00
25108;DHT22;13090;53.422;7.670;2023-05-27T03:35:06;9.70;68.20
25108;DHT22;13090;53.422;7.670;2023-05-27T03:40:26;9.70;68.80
25108;DHT22;13090;53.422;7.670;2023-05-27T03:45:47;9.70;68.70
25108;DHT22;13090;53.422;7.670;2023-05-27T03:51:09;9.70;68.70
25108;DHT22;13090;53.422;7.670;2023-05-27T03:56:30;9.70;68.90
25108;DHT22;13090;53.422;7.670;2023-05-27T04:01:51;9.70;68.80
25108;DHT22;13090;53.422;7.670;2023-05-27T04:07:14;9.70;68.90
25108;DHT22;13090;53.422;7.670;2023-05-27T04:12:35;9.80;69.40
25108;DHT22;13090;53.422;7.670;2023-05-27T04:17:56;9.90;69.30
25108;DHT22;13090;53.422;7.670;2023-05-27T04:23:18;10.00;69.50
25108;DHT22;13090;53.422;7.670;2023-05-27T04:28:40;10.20;69.90
25108;DHT22;13090;53.422;7.670;2023-05-27T04:34:00;10.30;70.00
25108;DHT22;13090;53.422;7.670;2023-05-27T04:39:23;10.50;70.20
25108;DHT22;13090;53.422;7.670;2023-05-27T04:44:44;10.70;70.50
25108;DHT22;13090;53.422;7.670;2023-05-27T04:50:06;11.00;70.60
25108;DHT22;13090;53.422;7.670;2023-05-27T04:55:28;11.30;71.20
25108;DHT22;13090;53.422;7.670;2023-05-27T05:00:49;11.60;71.40
25108;DHT22;13090;53.422;7.670;2023-05-27T05:06:11;12.10;71.50
25108;DHT22;13090;53.422;7.670;2023-05-27T05:11:34;12.60;71.70
25108;DHT22;13090;53.422;7.670;2023-05-27T05:16:54;13.20;72.10
25108;DHT22;13090;53.422;7.670;2023-05-27T05:22:15;14.00;72.10
25108;DHT22;13090;53.422;7.670;2023-05-27T05:27:37;14.90;71.90
25108;DHT22;13090;53.422;7.670;2023-05-27T05:32:58;15.90;71.20
25108;DHT22;13090;53.422;7.670;2023-05-27T05:38:19;17.00;70.20
25108;DHT22;13090;53.422;7.670;2023-05-27T05:43:41;18.00;69.00
25108;DHT22;13090;53.422;7.670;2023-05-27T05:49:02;18.90;67.10
25108;DHT22;13090;53.422;7.670;2023-05-27T05:54:23;19.70;65.70
25108;DHT22;13090;53.422;7.670;2023-05-27T05:59:46;20.30;63.20
25108;DHT22;13090;53.422;7.670;2023-05-27T06:05:08;20.20;60.10
25108;DHT22;13090;53.422;7.670;2023-05-27T06:10:29;19.60;58.60
25108;DHT22;13090;53.422;7.670;2023-05-27T06:15:51;18.70;59.40
25108;DHT22;13090;53.422;7.670;2023-05-27T06:21:12;17.90;61.30
25108;DHT22;13090;53.422;7.670;2023-05-27T06:26:33;17.20;62.00
25108;DHT22;13090;53.422;7.670;2023-05-27T06:31:55;17.10;64.70
25108;DHT22;13090;53.422;7.670;2023-05-27T06:37:16;17.60;66.30
25108;DHT22;13090;53.422;7.670;2023-05-27T06:42:37;18.20;65.00
25108;DHT22;13090;53.422;7.670;2023-05-27T06:47:59;18.40;62.50
25108;DHT22;13090;53.422;7.670;2023-05-27T06:53:20;18.30;62.40
25108;DHT22;13090;53.422;7.670;2023-05-27T06:58:41;18.50;63.60
25108;DHT22;13090;53.422;7.670;2023-05-27T07:04:04;19.00;62.80
25108;DHT22;13090;53.422;7.670;2023-05-27T07:09:25;19.50;61.70
25108;DHT22;13090;53.422;7.670;2023-05-27T07:14:45;19.80;59.50
25108;DHT22;13090;53.422;7.670;2023-05-27T07:20:09;20.10;59.60
25108;DHT22;13090;53.422;7.670;2023-05-27T07:25:30;20.60;59.50
25108;DHT22;13090;53.422;7.670;2023-05-27T07:30:51;21.20;55.80
25108;DHT22;13090;53.422;7.670;2023-05-27T07:36:14;21.40;56.50
25108;DHT22;13090;53.422;7.670;2023-05-27T07:41:35;21.60;55.90
25108;DHT22;13090;53.422;7.670;2023-05-27T07:46:56;21.80;55.40
25108;DHT22;13090;53.422;7.670;2023-05-27T07:52:18;22.30;54.70
25108;DHT22;13090;53.422;7.670;2023-05-27T07:57:39;22.60;53.10
25108;DHT22;13090;53.422;7.670;2023-05-27T08:03:00;22.80;52.40
25108;DHT22;13090;53.422;7.670;2023-05-27T08:08:22;23.10;54.30
25108;DHT22;13090;53.422;7.670;2023-05-27T08:13:44;23.70;51.50
25108;DHT22;13090;53.422;7.670;2023-05-27T08:19:05;24.00;51.90
25108;DHT22;13090;53.422;7.670;2023-05-27T08:24:27;24.40;53.20
25108;DHT22;13090;53.422;7.670;2023-05-27T08:29:48;25.10;50.30
25108;DHT22;13090;53.422;7.670;2023-05-27T08:35:10;25.30;51.20
25108;DHT22;13090;53.422;7.670;2023-05-27T08:40:32;25.80;49.60
25108;DHT22;13090;53.422;7.670;2023-05-27T08:45:53;26.10;49.10
25108;DHT22;13090;53.422;7.670;2023-05-27T08:51:16;26.40;48.40
25108;DHT22;13090;53.422;7.670;2023-05-27T08:56:39;26.70;48.40
25108;DHT22;13090;53.422;7.670;2023-05-27T09:02:01;27.40;48.20
25108;DHT22;13090;53.422;7.670;2023-05-27T09:07:23;27.90;47.30
25108;DHT22;13090;53.422;7.670;2023-05-27T09:12:45;28.20;45.10
25108;DHT22;13090;53.422;7.670;2023-05-27T09:18:06;28.30;45.30
25108;DHT22;13090;53.422;7.670;2023-05-27T09:23:27;28.60;45.70
25108;DHT22;13090;53.422;7.670;2023-05-27T09:28:49;28.90;45.20
25108;DHT22;13090;53.422;7.670;2023-05-27T09:34:12;29.20;43.70
25108;DHT22;13090;53.422;7.670;2023-05-27T09:39:34;29.20;43.70
25108;DHT22;13090;53.422;7.670;2023-05-27T09:44:57;29.50;44.10
25108;DHT22;13090;53.422;7.670;2023-05-27T09:50:19;30.20;43.70
25108;DHT22;13090;53.422;7.670;2023-05-27T09:55:40;30.80;42.50
25108;DHT22;13090;53.422;7.670;2023-05-27T10:01:04;31.30;41.60
25108;DHT22;13090;53.422;7.670;2023-05-27T10:06:25;31.40;39.60
25108;DHT22;13090;53.422;7.670;2023-05-27T10:11:47;31.00;39.30
25108;DHT22;13090;53.422;7.670;2023-05-27T10:17:10;30.50;39.30
25108;DHT22;13090;53.422;7.670;2023-05-27T10:22:38;30.10;38.60
25108;DHT22;13090;53.422;7.670;2023-05-27T10:28:02;29.80;40.30
25108;DHT22;13090;53.422;7.670;2023-05-27T10:33:30;30.10;41.60
25108;DHT22;13090;53.422;7.670;2023-05-27T10:38:55;30.80;40.30
25108;DHT22;13090;53.422;7.670;2023-05-27T10:44:26;31.30;39.40
25108;DHT22;13090;53.422;7.670;2023-05-27T10:49:50;31.00;36.30
25108;DHT22;13090;53.422;7.670;2023-05-27T10:55:11;30.80;38.40
25108;DHT22;13090;53.422;7.670;2023-05-27T11:00:32;31.00;39.00
25108;DHT22;13090;53.422;7.670;2023-05-27T11:06:00;31.50;38.30
25108;DHT22;13090;53.422;7.670;2023-05-27T11:11:21;31.90;37.80
25108;DHT22;13090;53.422;7.670;2023-05-27T11:16:47;32.10;37.90
25108;DHT22;13090;53.422;7.670;2023-05-27T11:22:10;32.20;35.00
25108;DHT22;13090;53.422;7.670;2023-05-27T11:27:35;31.20;34.70
25108;DHT22;13090;53.422;7.670;2023-05-27T11:33:02;30.10;36.00
25108;DHT22;13090;53.422;7.670;2023-05-27T11:38:24;29.60;36.40
25108;DHT22;13090;53.422;7.670;2023-05-27T11:43:54;29.00;36.70
25108;DHT22;13090;53.422;7.670;2023-05-27T11:49:17;28.10;37.20
25108;DHT22;13090;53.422;7.670;2023-05-27T11:54:39;27.40;38.80
25108;DHT22;13090;53.422;7.670;2023-05-27T12:00:07;27.40;39.30
25108;DHT22;13090;53.422;7.670;2023-05-27T12:05:28;27.70;39.00
25108;DHT22;13090;53.422;7.670;2023-05-27T12:10:56;27.70;39.40
25108;DHT22;13090;53.422;7.670;2023-05-27T12:16:16;27.90;39.80
25108;DHT22;13090;53.422;7.670;2023-05-27T12:21:37;28.10;37.60
25108;DHT22;13090;53.422;7.670;2023-05-27T12:27:00;27.70;39.10
25108;DHT22;13090;53.422;7.670;2023-05-27T12:32:21;27.40;38.50
25108;DHT22;13090;53.422;7.670;2023-05-27T12:37:41;27.00;38.90
25108;DHT22;13090;53.422;7.670;2023-05-27T12:43:04;26.70;39.90
25108;DHT22;13090;53.422;7.670;2023-05-27T12:48:25;26.80;39.40
25108;DHT22;13090;53.422;7.670;2023-05-27T12:53:46;26.70;40.10
25108;DHT22;13090;53.422;7.670;2023-05-27T12:59:09;26.70;39.90
25108;DHT22;13090;53.422;7.670;2023-05-27T13:04:30;26.90;40.10
25108;DHT22;13090;53.422;7.670;2023-05-27T13:09:51;26.90;39.50
25108;DHT22;13090;53.422;7.670;2023-05-27T13:15:14;27.00;39.90
25108;DHT22;13090;53.422;7.670;2023-05-27T13:20:34;27.20;40.00
25108;DHT22;13090;53.422;7.670;2023-05-27T13:25:55;27.10;38.20
25108;DHT22;13090;53.422;7.670;2023-05-27T13:31:18;26.70;39.00
25108;DHT22;13090;53.422;7.670;2023-05-27T13:36:38;26.40;39.90
25108;DHT22;13090;53.422;7.670;2023-05-27T13:41:59;25.80;40.80
25108;DHT22;13090;53.422;7.670;2023-05-27T13:47:21;25.40;41.30
25108;DHT22;13090;53.422;7.670;2023-05-27T13:52:42;25.40;41.40
25108;DHT22;13090;53.422;7.670;2023-05-27T13:58:03;25.70;41.40
25108;DHT22;13090;53.422;7.670;2023-05-27T14:03:25;25.60;41.00
25108;DHT22;13090;53.422;7.670;2023-05-27T14:08:47;25.10;41.50
25108;DHT22;13090;53.422;7.670;2023-05-27T14:14:07;25.00;42.40
25108;DHT22;13090;53.422;7.670;2023-05-27T14:19:30;25.10;42.70
25108;DHT22;13090;53.422;7.670;2023-05-27T14:24:51;25.40;42.70
25108;DHT22;13090;53.422;7.670;2023-05-27T14:30:12;25.70;42.70
25108;DHT22;13090;53.422;7.670;2023-05-27T14:35:35;25.40;42.20
25108;DHT22;13090;53.422;7.670;2023-05-27T14:40:56;25.20;42.70
25108;DHT22;13090;53.422;7.670;2023-05-27T14:46:17;25.40;43.10
25108;DHT22;13090;53.422;7.670;2023-05-27T14:51:39;25.50;43.50
25108;DHT22;13090;53.422;7.670;2023-05-27T14:57:00;25.20;43.50
25108;DHT22;13090;53.422;7.670;2023-05-27T15:02:21;25.30;43.80
25108;DHT22;13090;53.422;7.670;2023-05-27T15:07:45;25.40;43.80
25108;DHT22;13090;53.422;7.670;2023-05-27T15:13:06;25.40;44.00
25108;DHT22;13090;53.422;7.670;2023-05-27T15:18:26;25.30;44.40
25108;DHT22;13090;53.422;7.670;2023-05-27T15:23:49;25.40;44.70
25108;DHT22;13090;53.422;7.670;2023-05-27T15:29:10;25.60;44.50
25108;DHT22;13090;53.422;7.670;2023-05-27T15:34:31;25.70;44.40
25108;DHT22;13090;53.422;7.670;2023-05-27T15:39:53;25.90;44.30
25108;DHT22;13090;53.422;7.670;2023-05-27T15:45:16;26.00;44.10
25108;DHT22;13090;53.422;7.670;2023-05-27T15:50:38;26.00;44.00
25108;DHT22;13090;53.422;7.670;2023-05-27T15:56:01;26.00;43.90
25108;DHT22;13090;53.422;7.670;2023-05-27T16:01:22;26.00;43.80
25108;DHT22;13090;53.422;7.670;2023-05-27T16:06:43;25.80;43.80
25108;DHT22;13090;53.422;7.670;2023-05-27T16:12:06;25.80;43.80
25108;DHT22;13090;53.422;7.670;2023-05-27T16:17:27;25.60;43.80
25108;DHT22;13090;53.422;7.670;2023-05-27T16:22:48;25.40;43.90
25108;DHT22;13090;53.422;7.670;2023-05-27T16:28:10;25.20;44.20
25108;DHT22;13090;53.422;7.670;2023-05-27T16:33:31;25.10;44.30
25108;DHT22;13090;53.422;7.670;2023-05-27T16:38:52;24.90;44.30
25108;DHT22;13090;53.422;7.670;2023-05-27T16:44:14;24.80;44.50
25108;DHT22;13090;53.422;7.670;2023-05-27T16:49:35;24.70;44.70
25108;DHT22;13090;53.422;7.670;2023-05-27T16:54:57;24.60;44.80
25108;DHT22;13090;53.422;7.670;2023-05-27T17:00:20;24.40;44.90
25108;DHT22;13090;53.422;7.670;2023-05-27T17:05:41;24.30;45.40
25108;DHT22;13090;53.422;7.670;2023-05-27T17:11:02;24.00;45.30
25108;DHT22;13090;53.422;7.670;2023-05-27T17:16:24;23.80;45.40
25108;DHT22;13090;53.422;7.670;2023-05-27T17:21:45;23.60;45.80
25108;DHT22;13090;53.422;7.670;2023-05-27T17:27:07;23.40;45.90
25108;DHT22;13090;53.422;7.670;2023-05-27T17:32:30;23.30;46.10
25108;DHT22;13090;53.422;7.670;2023-05-27T17:37:51;23.10;46.40
25108;DHT22;13090;53.422;7.670;2023-05-27T17:43:12;23.00;46.50
25108;DHT22;13090;53.422;7.670;2023-05-27T17:48:34;22.90;46.70
25108;DHT22;13090;53.422;7.670;2023-05-27T17:53:55;22.70;46.90
25108;DHT22;13090;53.422;7.670;2023-05-27T17:59:16;22.50;46.90
25108;DHT22;13090;53.422;7.670;2023-05-27T18:04:39;22.30;47.20
25108;DHT22;13090;53.422;7.670;2023-05-27T18:10:00;22.00;47.50
25108;DHT22;13090;53.422;7.670;2023-05-27T18:15:20;21.80;47.60
25108;DHT22;13090;53.422;7.670;2023-05-27T18:20:43;21.60;48.00
25108;DHT22;13090;53.422;7.670;2023-05-27T18:26:04;21.50;48.30
25108;DHT22;13090;53.422;7.670;2023-05-27T18:31:25;21.30;48.30
25108;DHT22;13090;53.422;7.670;2023-05-27T18:36:47;21.10;48.50
25108;DHT22;13090;53.422;7.670;2023-05-27T18:42:08;21.00;49.10
25108;DHT22;13090;53.422;7.670;2023-05-27T18:47:29;20.80;49.00
25108;DHT22;13090;53.422;7.670;2023-05-27T18:52:52;20.70;49.10
25108;DHT22;13090;53.422;7.670;2023-05-27T18:58:13;20.60;49.50
25108;DHT22;13090;53.422;7.670;2023-05-27T19:03:33;20.50;49.60
25108;DHT22;13090;53.422;7.670;2023-05-27T19:08:56;20.40;49.70
25108;DHT22;13090;53.422;7.670;2023-05-27T19:14:17;20.20;49.90
25108;DHT22;13090;53.422;7.670;2023-05-27T19:19:37;20.10;50.00
25108;DHT22;13090;53.422;7.670;2023-05-27T19:25:00;19.90;50.10
25108;DHT22;13090;53.422;7.670;2023-05-27T19:30:20;19.70;50.30
25108;DHT22;13090;53.422;7.670;2023-05-27T19:35:43;19.60;50.30
25108;DHT22;13090;53.422;7.670;2023-05-27T19:41:08;19.40;50.60
25108;DHT22;13090;53.422;7.670;2023-05-27T19:46:29;19.20;50.80
25108;DHT22;13090;53.422;7.670;2023-05-27T19:51:51;19.00;50.80
25108;DHT22;13090;53.422;7.670;2023-05-27T19:57:14;18.80;51.00
25108;DHT22;13090;53.422;7.670;2023-05-27T20:02:35;18.60;51.20
25108;DHT22;13090;53.422;7.670;2023-05-27T20:07:56;18.50;51.20
25108;DHT22;13090;53.422;7.670;2023-05-27T20:13:18;18.30;51.50
25108;DHT22;13090;53.422;7.670;2023-05-27T20:18:39;18.20;51.90
25108;DHT22;13090;53.422;7.670;2023-05-27T20:24:00;18.00;52.00
25108;DHT22;13090;53.422;7.670;2023-05-27T20:29:23;17.80;52.40
25108;DHT22;13090;53.422;7.670;2023-05-27T20:34:45;17.70;52.80
25108;DHT22;13090;53.422;7.670;2023-05-27T20:40:07;17.50;53.10
25108;DHT22;13090;53.422;7.670;2023-05-27T20:45:30;17.40;53.40
25108;DHT22;13090;53.422;7.670;2023-05-27T20:50:50;17.30;53.60
25108;DHT22;13090;53.422;7.670;2023-05-27T20:56:11;17.20;53.80
25108;DHT22;13090;53.422;7.670;2023-05-27T21:01:33;17.00;54.20
25108;DHT22;13090;53.422;7.670;2023-05-27T21:06:55;16.90;54.70
25108;DHT22;13090;53.422;7.670;2023-05-27T21:12:15;16.80;54.80
25108;DHT22;13090;53.422;7.670;2023-05-27T21:17:38;16.70;55.10
25108;DHT22;13090;53.422;7.670;2023-05-27T21:22:58;16.60;55.50
25108;DHT22;13090;53.422;7.670;2023-05-27T21:28:19;16.50;55.60
25108;DHT22;13090;53.422;7.670;2023-05-27T21:33:42;16.40;55.80
25108;DHT22;13090;53.422;7.670;2023-05-27T21:39:03;16.30;56.30
25108;DHT22;13090;53.422;7.670;2023-05-27T21:44:24;16.20;56.30
25108;DHT22;13090;53.422;7.670;2023-05-27T21:49:46;16.10;56.60
25108;DHT22;13090;53.422;7.670;2023-05-27T21:55:08;16.00;57.00
25108;DHT22;13090;53.422;7.670;2023-05-27T22:00:29;15.90;57.20
25108;DHT22;13090;53.422;7.670;2023-05-27T22:05:52;15.80;57.40
25108;DHT22;13090;53.422;7.670;2023-05-27T22:11:13;15.80;57.90
25108;DHT22;13090;53.422;7.670;2023-05-27T22:16:34;15.70;57.90
25108;DHT22;13090;53.422;7.670;2023-05-27T22:21:57;15.60;58.20
25108;DHT22;13090;53.422;7.670;2023-05-27T22:27:18;15.50;58.70
25108;DHT22;13090;53.422;7.670;2023-05-27T22:32:39;15.50;58.70
25108;DHT22;13090;53.422;7.670;2023-05-27T22:38:02;15.40;59.10
25108;DHT22;13090;53.422;7.670;2023-05-27T22:43:22;15.30;59.60
25108;DHT22;13090;53.422;7.670;2023-05-27T22:48:43;15.20;60.00
25108;DHT22;13090;53.422;7.670;2023-05-27T22:54:06;15.00;60.40
25108;DHT22;13090;53.422;7.670;2023-05-27T22:59:27;14.90;61.30
25108;DHT22;13090;53.422;7.670;2023-05-27T23:04:48;14.80;61.10
25108;DHT22;13090;53.422;7.670;2023-05-27T23:10:10;14.80;61.60
25108;DHT22;13090;53.422;7.670;2023-05-27T23:15:31;14.70;62.30
25108;DHT22;13090;53.422;7.670;2023-05-27T23:20:52;14.70;62.30
25108;DHT22;13090;53.422;7.670;2023-05-27T23:26:14;14.70;62.70
25108;DHT22;13090;53.422;7.670;2023-05-27T23:31:35;14.60;63.50
25108;DHT22;13090;53.422;7.670;2023-05-27T23:36:56;14.50;63.30
25108;DHT22;13090;53.422;7.670;2023-05-27T23:42:19;14.50;63.70
25108;DHT22;13090;53.422;7.670;2023-05-27T23:47:39;14.50;64.20
25108;DHT22;13090;53.422;7.670;2023-05-27T23:53:00;14.40;64.10
25108;DHT22;13090;53.422;7.670;2023-05-27T23:58:22;14.40;64.40
